createdAt,value
2017-06-27T00:00:01.867Z,20.10
2017-06-27T00:02:29.958Z,20.00
2017-06-27T00:04:58.110Z,20.00
2017-06-27T00:07:26.337Z,20.00
2017-06-27T00:09:55.154Z,20.00
2017-06-27T00:12:23.245Z,19.90
2017-06-27T00:14:51.423Z,19.80
2017-06-27T00:17:19.478Z,19.80
2017-06-27T00:19:47.602Z,19.80
2017-06-27T00:22:16.429Z,19.80
2017-06-27T00:24:44.537Z,19.90
2017-06-27T00:27:12.586Z,19.80
2017-06-27T00:29:41.409Z,19.80
2017-06-27T00:32:09.565Z,19.80
2017-06-27T00:34:38.046Z,19.90
2017-06-27T00:37:06.109Z,19.90
2017-06-27T00:39:34.166Z,19.90
2017-06-27T00:42:02.669Z,19.90
2017-06-27T00:44:30.730Z,19.90
2017-06-27T00:46:58.831Z,19.80
2017-06-27T00:49:26.989Z,19.80
2017-06-27T00:51:55.171Z,19.80
2017-06-27T00:54:23.225Z,19.80
2017-06-27T00:56:51.413Z,19.80
2017-06-27T00:59:19.509Z,19.70
2017-06-27T01:01:47.558Z,19.70
2017-06-27T01:04:15.724Z,19.80
2017-06-27T01:06:43.794Z,19.80
2017-06-27T01:09:11.881Z,19.70
2017-06-27T01:11:39.933Z,19.80
2017-06-27T01:16:37.835Z,19.80
2017-06-27T01:19:05.890Z,19.90
2017-06-27T01:21:33.942Z,19.90
2017-06-27T01:24:03.153Z,19.90
2017-06-27T01:26:31.210Z,19.90
2017-06-27T01:28:59.281Z,19.90
2017-06-27T01:31:27.337Z,19.90
2017-06-27T01:36:24.769Z,20.00
2017-06-27T01:38:52.933Z,20.00
2017-06-27T01:41:20.989Z,20.00
2017-06-27T01:43:49.090Z,20.00
2017-06-27T01:46:17.161Z,20.00
2017-06-27T01:48:45.217Z,19.90
2017-06-27T01:51:13.281Z,19.90
2017-06-27T01:53:41.465Z,19.80
2017-06-27T01:56:09.524Z,20.00
2017-06-27T01:58:37.606Z,20.00
2017-06-27T02:01:05.784Z,20.00
2017-06-27T02:03:33.846Z,19.90
2017-06-27T02:06:02.314Z,19.90
2017-06-27T02:08:30.810Z,19.80
2017-06-27T02:10:59.267Z,19.80
2017-06-27T02:13:27.366Z,19.80
2017-06-27T02:15:55.460Z,19.70
2017-06-27T02:18:23.514Z,19.60
2017-06-27T02:20:53.096Z,19.60
2017-06-27T02:23:21.199Z,19.60
2017-06-27T02:25:49.274Z,19.50
2017-06-27T02:28:17.458Z,19.60
2017-06-27T02:30:45.539Z,19.50
2017-06-27T02:33:14.362Z,19.60
2017-06-27T02:35:43.299Z,19.60
2017-06-27T02:38:11.359Z,19.60
2017-06-27T02:40:39.422Z,19.60
2017-06-27T02:45:37.350Z,19.60
2017-06-27T02:48:05.908Z,19.60
2017-06-27T02:50:34.495Z,19.60
2017-06-27T02:53:02.566Z,19.50
2017-06-27T02:55:30.639Z,19.40
2017-06-27T02:57:58.815Z,19.30
2017-06-27T03:00:27.258Z,19.30
2017-06-27T03:02:55.362Z,19.30
2017-06-27T03:05:24.590Z,19.30
2017-06-27T03:07:52.667Z,19.30
2017-06-27T03:10:32.764Z,19.20
2017-06-27T03:13:01.243Z,19.20
2017-06-27T03:15:29.314Z,19.20
2017-06-27T03:17:58.566Z,19.20
2017-06-27T03:20:27.754Z,19.10
2017-06-27T03:22:55.805Z,19.10
2017-06-27T03:25:25.437Z,19.10
2017-06-27T03:27:53.511Z,19.20
2017-06-27T03:30:22.383Z,19.20
2017-06-27T03:32:50.566Z,19.10
2017-06-27T03:35:19.377Z,19.10
2017-06-27T03:37:47.465Z,19.10
2017-06-27T03:40:15.590Z,19.20
2017-06-27T03:42:43.723Z,19.20
2017-06-27T03:45:11.788Z,19.20
2017-06-27T03:47:40.614Z,19.20
2017-06-27T03:50:09.486Z,19.20
2017-06-27T03:52:37.622Z,19.20
2017-06-27T03:55:05.738Z,19.20
2017-06-27T03:57:33.850Z,19.20
2017-06-27T04:02:32.030Z,19.30
2017-06-27T04:05:00.091Z,19.30
2017-06-27T04:07:28.158Z,19.30
2017-06-27T04:09:56.270Z,19.30
2017-06-27T04:12:24.435Z,19.30
2017-06-27T04:14:52.968Z,19.40
2017-06-27T04:17:21.948Z,19.30
2017-06-27T04:19:50.068Z,19.40
2017-06-27T04:22:18.213Z,19.50
2017-06-27T04:24:47.410Z,19.50
2017-06-27T04:27:15.506Z,19.40
2017-06-27T04:29:43.645Z,19.50
2017-06-27T04:32:12.537Z,19.50
2017-06-27T04:37:09.954Z,19.50
2017-06-27T04:39:38.532Z,19.40
2017-06-27T04:42:06.600Z,19.40
2017-06-27T04:44:35.106Z,19.40
2017-06-27T04:47:03.206Z,19.40
2017-06-27T04:49:32.060Z,19.40
2017-06-27T04:52:00.531Z,19.40
2017-06-27T04:54:29.418Z,19.30
2017-06-27T04:56:57.917Z,19.30
2017-06-27T04:59:27.666Z,19.10
2017-06-27T05:04:25.200Z,18.90
2017-06-27T05:06:53.367Z,18.80
2017-06-27T05:09:21.544Z,18.60
2017-06-27T05:11:49.693Z,18.70
2017-06-27T05:14:18.604Z,18.70
2017-06-27T05:16:47.434Z,18.70
2017-06-27T05:19:16.292Z,18.70
2017-06-27T05:21:44.445Z,18.60
2017-06-27T05:24:12.506Z,18.60
2017-06-27T05:26:40.990Z,18.70
2017-06-27T05:29:09.474Z,18.60
2017-06-27T05:31:37.547Z,18.60
2017-06-27T05:34:05.661Z,18.60
2017-06-27T05:36:33.789Z,18.70
2017-06-27T05:39:01.858Z,18.70
2017-06-27T05:41:29.927Z,18.70
2017-06-27T05:43:58.039Z,18.70
2017-06-27T05:46:26.218Z,18.70
2017-06-27T05:48:54.309Z,18.90
2017-06-27T05:51:22.374Z,18.90
2017-06-27T05:53:50.468Z,19.00
2017-06-27T05:56:18.542Z,19.00
2017-06-27T05:58:46.605Z,19.00
2017-06-27T06:01:15.469Z,19.30
2017-06-27T06:03:44.339Z,19.20
2017-06-27T06:06:12.407Z,19.30
2017-06-27T06:11:09.834Z,19.30
2017-06-27T06:13:38.666Z,19.30
2017-06-27T06:16:06.755Z,19.30
2017-06-27T06:18:34.846Z,19.40
2017-06-27T06:21:04.142Z,19.40
2017-06-27T06:23:32.206Z,19.40
2017-06-27T06:26:00.274Z,19.50
2017-06-27T06:28:28.358Z,19.50
2017-06-27T06:30:57.235Z,19.60
2017-06-27T06:33:25.307Z,19.70
2017-06-27T06:35:53.381Z,19.90
2017-06-27T06:40:51.193Z,20.00
2017-06-27T06:43:19.338Z,20.00
2017-06-27T06:45:48.171Z,20.10
2017-06-27T06:48:17.001Z,20.20
2017-06-27T06:50:45.090Z,20.40
2017-06-27T06:53:13.181Z,20.50
2017-06-27T06:58:10.618Z,20.60
2017-06-27T07:00:38.709Z,20.60
2017-06-27T07:03:07.217Z,20.50
2017-06-27T07:05:35.765Z,20.50
2017-06-27T07:08:03.898Z,20.50
2017-06-27T07:10:32.826Z,20.50
2017-06-27T07:13:00.886Z,20.50
2017-06-27T07:15:29.375Z,20.50
2017-06-27T07:17:57.442Z,20.60
2017-06-27T07:20:25.919Z,20.50
2017-06-27T07:22:54.414Z,20.50
2017-06-27T07:25:22.908Z,20.50
2017-06-27T07:27:50.980Z,20.30
2017-06-27T07:30:19.462Z,20.40
2017-06-27T07:32:47.521Z,20.30
2017-06-27T07:35:15.582Z,20.30
2017-06-27T07:37:43.671Z,20.30
2017-06-27T07:40:11.731Z,20.20
2017-06-27T07:42:39.830Z,20.20
2017-06-27T07:45:07.878Z,20.10
2017-06-27T07:47:35.935Z,20.10
2017-06-27T07:50:04.014Z,20.10
2017-06-27T07:52:32.069Z,20.00
2017-06-27T07:55:00.130Z,19.90
2017-06-27T07:57:28.974Z,19.90
2017-06-27T07:59:57.478Z,19.90
2017-06-27T08:02:25.545Z,19.90
2017-06-27T08:04:53.618Z,20.00
2017-06-27T08:07:21.694Z,20.00
2017-06-27T08:09:49.762Z,20.10
2017-06-27T08:12:17.862Z,20.20
2017-06-27T08:14:46.723Z,20.20
2017-06-27T08:17:14.815Z,20.30
2017-06-27T08:19:43.674Z,20.30
2017-06-27T08:22:11.723Z,20.50
2017-06-27T08:24:39.794Z,20.50
2017-06-27T08:27:07.883Z,20.60
2017-06-27T08:29:36.735Z,20.70
2017-06-27T08:32:04.791Z,20.80
2017-06-27T08:34:33.654Z,20.90
2017-06-27T08:37:01.714Z,21.00
2017-06-27T08:39:29.815Z,21.10
2017-06-27T08:41:57.878Z,21.10
2017-06-27T08:44:25.970Z,21.20
2017-06-27T08:46:54.799Z,21.20
2017-06-27T08:49:22.858Z,21.20
2017-06-27T08:51:50.947Z,21.10
2017-06-27T08:54:19.397Z,21.30
2017-06-27T08:56:47.492Z,21.50
2017-06-27T08:59:15.574Z,21.50
2017-06-27T09:01:43.627Z,21.60
2017-06-27T09:04:11.715Z,21.70
2017-06-27T09:06:39.775Z,21.90
2017-06-27T09:09:07.850Z,22.10
2017-06-27T09:11:36.382Z,22.50
2017-06-27T09:14:04.439Z,22.60
2017-06-27T09:16:32.498Z,22.80
2017-06-27T09:19:00.604Z,23.10
2017-06-27T09:21:28.662Z,23.30
2017-06-27T09:23:56.754Z,23.30
2017-06-27T09:26:25.594Z,23.30
2017-06-27T09:28:54.038Z,23.30
2017-06-27T09:31:22.114Z,23.40
2017-06-27T09:33:50.170Z,23.40
2017-06-27T09:36:19.022Z,23.50
2017-06-27T09:38:47.523Z,23.50
2017-06-27T09:41:15.582Z,23.60
2017-06-27T09:43:44.031Z,23.60
2017-06-27T09:46:12.114Z,23.60
2017-06-27T09:48:40.173Z,23.80
2017-06-27T09:51:08.255Z,24.00
2017-06-27T09:53:36.369Z,23.90
2017-06-27T09:56:04.410Z,23.90
2017-06-27T09:58:32.532Z,23.80
2017-06-27T10:01:00.991Z,23.80
2017-06-27T10:03:29.442Z,24.00
2017-06-27T10:05:57.532Z,23.90
2017-06-27T10:08:26.390Z,23.70
2017-06-27T10:10:54.867Z,23.50
2017-06-27T10:13:22.928Z,23.50
2017-06-27T10:15:51.378Z,23.50
2017-06-27T10:18:20.230Z,23.50
2017-06-27T10:20:48.313Z,23.60
2017-06-27T10:23:16.467Z,23.60
2017-06-27T10:25:45.275Z,23.70
2017-06-27T10:28:13.335Z,23.60
2017-06-27T10:30:41.448Z,23.70
2017-06-27T10:33:10.302Z,23.60
2017-06-27T10:35:38.363Z,23.60
2017-06-27T10:38:06.818Z,23.50
2017-06-27T10:40:34.934Z,23.40
2017-06-27T10:43:03.001Z,23.40
2017-06-27T10:45:31.065Z,23.40
2017-06-27T10:47:59.192Z,23.30
2017-06-27T10:50:27.643Z,23.30
2017-06-27T10:52:55.725Z,23.30
2017-06-27T10:55:23.839Z,23.30
2017-06-27T10:57:52.341Z,23.20
2017-06-27T11:00:20.379Z,23.20
2017-06-27T11:02:48.503Z,23.30
2017-06-27T11:05:16.571Z,23.40
2017-06-27T11:07:45.410Z,23.40
2017-06-27T11:10:13.488Z,23.50
2017-06-27T11:12:41.541Z,23.50
2017-06-27T11:15:10.399Z,23.40
2017-06-27T11:17:38.459Z,23.30
2017-06-27T11:20:06.519Z,23.40
2017-06-27T11:22:34.596Z,23.50
2017-06-27T11:25:02.680Z,23.80
2017-06-27T11:27:30.762Z,24.00
2017-06-27T11:29:58.818Z,24.00
2017-06-27T11:32:26.882Z,24.00
2017-06-27T11:34:54.958Z,24.00
2017-06-27T11:37:23.018Z,24.00
2017-06-27T11:39:51.074Z,23.90
2017-06-27T11:42:19.146Z,24.00
2017-06-27T11:44:47.606Z,23.90
2017-06-27T11:47:16.511Z,23.90
2017-06-27T11:49:45.306Z,24.00
2017-06-27T11:52:13.371Z,24.00
2017-06-27T11:54:41.514Z,24.00
2017-06-27T11:57:09.966Z,24.10
2017-06-27T11:59:38.053Z,24.10
2017-06-27T12:02:10.251Z,24.20
2017-06-27T12:04:41.200Z,24.30
2017-06-27T12:07:24.406Z,24.40
2017-06-27T12:09:53.230Z,24.40
2017-06-27T12:12:21.325Z,24.50
2017-06-27T12:14:49.382Z,24.70
2017-06-27T12:17:17.438Z,24.80
2017-06-27T12:19:45.526Z,24.90
2017-06-27T12:22:13.582Z,25.20
2017-06-27T12:24:41.645Z,25.60
2017-06-27T12:27:10.495Z,25.90
2017-06-27T12:29:38.559Z,26.10
2017-06-27T12:32:06.642Z,26.50
2017-06-27T12:34:34.726Z,26.60
2017-06-27T12:37:02.822Z,26.60
2017-06-27T12:39:31.258Z,26.30
2017-06-27T12:41:59.350Z,26.40
2017-06-27T12:44:27.422Z,26.60
2017-06-27T12:46:55.559Z,26.70
2017-06-27T12:49:23.635Z,26.60
2017-06-27T12:51:51.707Z,27.10
2017-06-27T12:54:19.783Z,27.70
2017-06-27T12:56:47.927Z,28.60
2017-06-27T12:59:15.966Z,29.20
2017-06-27T13:01:44.431Z,29.10
2017-06-27T13:04:12.515Z,29.80
2017-06-27T13:06:40.972Z,30.40
2017-06-27T13:09:09.030Z,30.50
2017-06-27T13:11:37.142Z,30.30
2017-06-27T13:14:05.962Z,30.10
2017-06-27T13:16:34.020Z,30.60
2017-06-27T13:19:02.872Z,31.00
2017-06-27T13:21:30.927Z,30.70
2017-06-27T13:23:59.375Z,30.00
2017-06-27T13:26:27.446Z,28.90
2017-06-27T13:28:55.530Z,28.10
2017-06-27T13:31:23.610Z,28.00
2017-06-27T13:33:52.063Z,27.90
2017-06-27T13:36:20.119Z,27.90
2017-06-27T13:38:48.959Z,27.70
2017-06-27T13:41:17.059Z,27.70
2017-06-27T13:43:45.134Z,27.40
2017-06-27T13:46:13.275Z,27.20
2017-06-27T13:48:41.354Z,27.10
2017-06-27T13:51:09.431Z,26.90
2017-06-27T13:53:37.482Z,26.90
2017-06-27T13:56:05.958Z,27.00
2017-06-27T13:58:34.014Z,26.90
2017-06-27T14:01:02.478Z,27.00
2017-06-27T14:03:31.327Z,27.60
2017-06-27T14:05:59.414Z,27.90
2017-06-27T14:08:27.470Z,28.00
2017-06-27T14:10:55.531Z,27.90
2017-06-27T14:13:24.386Z,27.90
2017-06-27T14:15:52.470Z,27.90
2017-06-27T14:18:20.612Z,27.80
2017-06-27T14:20:48.666Z,27.60
2017-06-27T14:23:16.737Z,27.60
2017-06-27T14:25:44.881Z,27.80
2017-06-27T14:28:12.991Z,28.00
2017-06-27T14:30:41.054Z,27.90
2017-06-27T14:33:09.506Z,27.70
2017-06-27T14:35:37.599Z,27.90
2017-06-27T14:38:05.657Z,28.30
2017-06-27T14:40:33.710Z,28.10
2017-06-27T14:43:02.562Z,28.00
2017-06-27T14:45:31.395Z,27.90
2017-06-27T14:47:59.459Z,27.70
2017-06-27T14:50:27.979Z,27.60
2017-06-27T14:52:56.450Z,27.60
2017-06-27T14:55:24.525Z,27.50
2017-06-27T14:57:52.645Z,27.60
2017-06-27T15:00:20.755Z,27.40
2017-06-27T15:02:48.819Z,27.30
2017-06-27T15:05:16.898Z,27.10
2017-06-27T15:07:44.954Z,26.90
2017-06-27T15:10:13.012Z,27.00
2017-06-27T15:12:41.107Z,26.90
2017-06-27T15:15:09.571Z,26.70
2017-06-27T15:17:37.651Z,26.70
2017-06-27T15:20:05.786Z,26.60
2017-06-27T15:22:33.843Z,26.60
2017-06-27T15:25:01.907Z,26.60
2017-06-27T15:27:30.023Z,26.60
2017-06-27T15:29:58.082Z,26.50
2017-06-27T15:32:26.904Z,26.60
2017-06-27T15:34:55.006Z,26.60
2017-06-27T15:37:23.062Z,26.60
2017-06-27T15:39:51.128Z,26.60
2017-06-27T15:42:19.603Z,26.50
2017-06-27T15:44:47.655Z,26.50
2017-06-27T15:47:16.109Z,26.40
2017-06-27T15:49:44.194Z,26.30
2017-06-27T15:52:13.020Z,26.40
2017-06-27T15:54:41.466Z,26.40
2017-06-27T15:57:10.322Z,26.40
2017-06-27T15:59:38.377Z,26.30
2017-06-27T16:02:06.437Z,26.30
2017-06-27T16:04:34.528Z,26.20
2017-06-27T16:07:03.347Z,26.10
2017-06-27T16:09:31.406Z,26.10
2017-06-27T16:11:59.478Z,26.00
2017-06-27T16:14:27.538Z,26.00
2017-06-27T16:16:55.632Z,25.90
2017-06-27T16:19:23.686Z,25.80
2017-06-27T16:21:53.250Z,25.70
2017-06-27T16:24:21.348Z,25.70
2017-06-27T16:26:49.402Z,25.70
2017-06-27T16:29:17.462Z,25.60
2017-06-27T16:31:45.992Z,25.60
2017-06-27T16:34:14.455Z,25.60
2017-06-27T16:36:42.507Z,25.60
2017-06-27T16:39:10.592Z,25.60
2017-06-27T16:41:38.642Z,25.70
2017-06-27T16:44:06.719Z,25.70
2017-06-27T16:46:34.794Z,25.70
2017-06-27T16:49:02.850Z,25.60
2017-06-27T16:51:30.906Z,25.60
2017-06-27T16:53:59.384Z,25.50
2017-06-27T16:56:28.210Z,25.50
2017-06-27T16:58:56.283Z,25.40
2017-06-27T17:01:24.490Z,25.30
2017-06-27T17:03:52.568Z,25.30
2017-06-27T17:06:20.714Z,25.20
2017-06-27T17:08:48.810Z,25.10
2017-06-27T17:11:16.968Z,25.00
2017-06-27T17:13:45.063Z,25.00
2017-06-27T17:16:13.207Z,25.00
2017-06-27T17:18:41.262Z,25.00
2017-06-27T17:21:09.759Z,25.00
2017-06-27T17:23:37.846Z,25.10
2017-06-27T17:26:05.902Z,25.10
2017-06-27T17:28:34.086Z,25.20
2017-06-27T17:31:02.894Z,25.10
2017-06-27T17:33:31.718Z,25.10
2017-06-27T17:36:00.539Z,25.10
2017-06-27T17:38:28.726Z,25.00
2017-06-27T17:40:57.552Z,25.00
2017-06-27T17:43:25.618Z,25.00
2017-06-27T17:45:54.099Z,24.90
2017-06-27T17:48:22.580Z,24.80
2017-06-27T17:50:50.638Z,24.70
2017-06-27T17:53:19.504Z,24.70
2017-06-27T17:55:47.567Z,24.60
2017-06-27T17:58:16.010Z,24.60
2017-06-27T18:00:44.960Z,24.50
2017-06-27T18:03:13.022Z,24.50
2017-06-27T18:05:41.112Z,24.50
2017-06-27T18:08:09.575Z,24.50
2017-06-27T18:10:37.626Z,24.50
2017-06-27T18:13:06.133Z,24.50
2017-06-27T18:15:34.226Z,24.60
2017-06-27T18:18:02.384Z,24.70
2017-06-27T18:20:30.474Z,24.70
2017-06-27T18:22:58.651Z,24.70
2017-06-27T18:25:26.751Z,24.60
2017-06-27T18:27:55.612Z,24.60
2017-06-27T18:30:23.777Z,24.60
2017-06-27T18:32:52.822Z,24.60
2017-06-27T18:35:20.951Z,24.50
2017-06-27T18:37:49.046Z,24.50
2017-06-27T18:40:17.111Z,24.40
2017-06-27T18:42:45.171Z,24.30
2017-06-27T18:45:14.766Z,24.30
2017-06-27T18:47:42.847Z,24.20
2017-06-27T18:50:11.283Z,24.20
2017-06-27T18:52:39.422Z,24.10
2017-06-27T18:55:08.262Z,24.10
2017-06-27T18:57:36.343Z,24.10
2017-06-27T19:00:04.822Z,24.00
2017-06-27T19:02:33.281Z,24.00
2017-06-27T19:05:01.355Z,24.00
2017-06-27T19:07:29.427Z,24.00
2017-06-27T19:09:57.879Z,23.90
2017-06-27T19:12:26.755Z,23.90
2017-06-27T19:14:54.842Z,23.90
2017-06-27T19:17:23.661Z,23.80
2017-06-27T19:19:52.491Z,23.70
2017-06-27T19:22:20.578Z,23.70
2017-06-27T19:24:48.641Z,23.70
2017-06-27T19:27:17.100Z,23.70
2017-06-27T19:29:45.222Z,23.60
2017-06-27T19:32:13.675Z,23.60
2017-06-27T19:34:42.503Z,23.50
2017-06-27T19:37:10.974Z,23.50
2017-06-27T19:39:39.798Z,23.40
2017-06-27T19:42:09.408Z,23.40
2017-06-27T19:44:37.477Z,23.30
2017-06-27T19:47:05.539Z,23.30
2017-06-27T19:49:33.623Z,23.30
2017-06-27T19:52:01.682Z,23.30
2017-06-27T19:54:30.936Z,23.20
2017-06-27T19:56:59.442Z,23.20
2017-06-27T19:59:28.271Z,23.10
2017-06-27T20:01:57.513Z,23.10
2017-06-27T20:04:25.624Z,23.10
2017-06-27T20:06:53.675Z,23.00
2017-06-27T20:09:22.522Z,23.00
2017-06-27T20:14:21.427Z,23.00
2017-06-27T20:16:49.486Z,23.00
2017-06-27T20:19:17.555Z,22.90
2017-06-27T20:21:45.730Z,22.90
2017-06-27T20:24:13.817Z,22.80
2017-06-27T20:26:41.864Z,22.80
2017-06-27T20:29:11.511Z,22.80
2017-06-27T20:31:39.687Z,22.80
2017-06-27T20:34:07.750Z,22.80
2017-06-27T20:36:35.842Z,22.80
2017-06-27T20:39:03.929Z,22.80
2017-06-27T20:41:31.966Z,22.70
2017-06-27T20:44:00.050Z,22.70
2017-06-27T20:46:28.137Z,22.70
2017-06-27T20:48:56.213Z,22.60
2017-06-27T20:51:25.038Z,22.60
2017-06-27T20:53:53.140Z,22.60
2017-06-27T20:56:21.210Z,22.50
2017-06-27T20:58:49.366Z,22.50
2017-06-27T21:01:17.566Z,22.40
2017-06-27T21:03:45.784Z,22.30
2017-06-27T21:06:14.610Z,22.10
2017-06-27T21:08:42.694Z,22.10
2017-06-27T21:11:12.947Z,22.10
2017-06-27T21:13:41.050Z,22.10
2017-06-27T21:16:09.134Z,22.00
2017-06-27T21:18:37.194Z,22.00
2017-06-27T21:21:05.295Z,22.00
2017-06-27T21:23:33.471Z,22.00
2017-06-27T21:26:01.539Z,22.00
2017-06-27T21:28:29.648Z,21.90
2017-06-27T21:30:57.786Z,21.90
2017-06-27T21:33:25.856Z,21.90
2017-06-27T21:35:54.055Z,21.90
2017-06-27T21:38:22.117Z,21.80
2017-06-27T21:40:50.274Z,21.80
2017-06-27T21:43:18.355Z,21.80
2017-06-27T21:45:46.555Z,21.80
2017-06-27T21:48:14.698Z,21.80
2017-06-27T21:50:42.767Z,21.80
2017-06-27T21:53:10.866Z,21.80
2017-06-27T21:58:09.479Z,21.70
2017-06-27T22:00:37.623Z,21.80
2017-06-27T22:03:05.747Z,21.80
2017-06-27T22:05:33.812Z,21.80
2017-06-27T22:08:02.655Z,21.80
2017-06-27T22:10:30.732Z,21.80
2017-06-27T22:12:58.791Z,21.80
2017-06-27T22:15:26.846Z,21.80
2017-06-27T22:17:55.021Z,21.80
2017-06-27T22:20:23.215Z,21.70
2017-06-27T22:22:51.278Z,21.70
2017-06-27T22:25:19.358Z,21.70
2017-06-27T22:27:48.199Z,21.70
2017-06-27T22:30:17.155Z,21.60
2017-06-27T22:32:45.230Z,21.60
2017-06-27T22:35:13.395Z,21.60
2017-06-27T22:37:41.487Z,21.60
2017-06-27T22:40:09.638Z,21.50
2017-06-27T22:42:37.720Z,21.50
2017-06-27T22:45:05.823Z,21.50
2017-06-27T22:47:33.918Z,21.50
2017-06-27T22:50:02.095Z,21.50
2017-06-27T22:52:30.150Z,21.40
2017-06-27T22:54:58.245Z,21.40
2017-06-27T22:57:26.347Z,21.40
2017-06-27T22:59:54.418Z,21.30
2017-06-27T23:02:22.470Z,21.30
2017-06-27T23:04:50.661Z,21.30
2017-06-27T23:07:18.812Z,21.20
2017-06-27T23:09:47.634Z,21.20
2017-06-27T23:12:15.710Z,21.20
2017-06-27T23:14:44.164Z,21.20
2017-06-27T23:17:12.219Z,21.20
2017-06-27T23:19:40.299Z,21.10
2017-06-27T23:22:08.376Z,21.10
2017-06-27T23:24:36.447Z,21.00
2017-06-27T23:27:04.522Z,21.00
2017-06-27T23:29:32.595Z,21.10
2017-06-27T23:32:00.659Z,21.00
2017-06-27T23:34:29.511Z,21.00
2017-06-27T23:36:57.568Z,21.00
2017-06-27T23:39:26.396Z,21.10
2017-06-27T23:41:54.470Z,21.00
2017-06-27T23:44:22.526Z,21.10
2017-06-27T23:46:50.590Z,21.00
2017-06-27T23:49:18.674Z,21.10
2017-06-27T23:51:47.862Z,21.20
2017-06-27T23:54:15.918Z,21.10
2017-06-27T23:56:44.005Z,21.10
2017-06-27T23:59:12.079Z,21.00
